Time;durP1;ratioP1;P1;durP2;ratioP2;P2;SDS_P1;SDS_P2;PMS_P1;PMS_P2;Temp;Humidity;BMP_temperature;BMP_pressure;BME280_temperature;BME280_humidity;BME280_pressure;Samples;Min_cycle;Max_cycle;Signal;HPM_P1;HPM_P2
2023/03/07 00:01:44;;;;;;;12.65;4.38;;;20.20;55.70;;;;;;6213638;23;20009;-71
2023/03/07 00:04:09;;;;;;;12.70;4.35;;;20.20;55.70;;;;;;6213757;23;20009;-72
2023/03/07 00:06:35;;;;;;;15.80;4.50;;;20.20;55.70;;;;;;6213306;23;20331;-72
2023/03/07 00:09:02;;;;;;;10.73;4.50;;;20.20;55.70;;;;;;6211639;23;20346;-72
2023/03/07 00:11:28;;;;;;;11.18;3.97;;;20.20;55.70;;;;;;6213427;23;19996;-72
2023/03/07 00:13:54;;;;;;;10.85;4.13;;;20.20;55.70;;;;;;6186520;23;20000;-72
2023/03/07 00:16:22;;;;;;;11.57;4.05;;;20.20;55.70;;;;;;6213471;23;20100;-72
2023/03/07 00:18:48;;;;;;;13.15;4.97;;;20.20;55.80;;;;;;6213112;23;20004;-72
2023/03/07 00:21:17;;;;;;;18.17;5.80;;;20.20;55.90;;;;;;6213396;23;20007;-71
2023/03/07 00:23:44;;;;;;;15.35;5.70;;;20.30;56.20;;;;;;6213607;23;20019;-71
2023/03/07 00:26:19;;;;;;;12.63;5.30;;;20.30;56.10;;;;;;6213175;23;20007;-72
2023/03/07 00:28:47;;;;;;;18.63;5.70;;;20.30;56.20;;;;;;6206022;23;20009;-72
2023/03/07 00:31:13;;;;;;;12.95;5.10;;;20.30;56.20;;;;;;6181392;23;20005;-70
2023/03/07 00:33:39;;;;;;;15.68;5.55;;;20.30;56.30;;;;;;6156811;23;20100;-70
2023/03/07 00:36:13;;;;;;;15.32;5.10;;;20.30;56.30;;;;;;6181590;23;20035;-71
2023/03/07 00:38:41;;;;;;;15.63;5.47;;;20.30;56.20;;;;;;6181022;23;20004;-71
2023/03/07 00:41:13;;;;;;;18.58;5.82;;;20.30;56.30;;;;;;6208165;23;20009;-71
2023/03/07 00:43:39;;;;;;;24.00;7.05;;;20.30;57.90;;;;;;6184813;23;20001;-71
2023/03/07 00:46:05;;;;;;;18.92;6.28;;;20.30;59.80;;;;;;6183374;23;20005;-71
2023/03/07 00:48:36;;;;;;;16.77;5.85;;;20.40;60.60;;;;;;6207838;23;20067;-71
2023/03/07 00:51:03;;;;;;;18.25;6.40;;;20.30;61.40;;;;;;6184845;23;20439;-76
2023/03/07 00:53:29;;;;;;;14.88;5.60;;;20.30;60.20;;;;;;6183392;23;20020;-72
2023/03/07 00:56:00;;;;;;;23.80;6.15;;;20.30;60.30;;;;;;6207945;23;20001;-73
2023/03/07 00:58:28;;;;;;;19.05;5.78;;;20.20;60.50;;;;;;6157839;23;20041;-73
2023/03/07 01:00:54;;;;;;;19.92;6.65;;;20.20;60.10;;;;;;6183346;23;20056;-72
2023/03/07 01:03:22;;;;;;;12.25;4.97;;;20.20;59.90;;;;;;6158238;23;20013;-72
2023/03/07 01:05:48;;;;;;;15.15;5.68;;;20.20;59.30;;;;;;6206790;23;20015;-74
2023/03/07 01:08:15;;;;;;;18.27;5.65;;;20.10;59.20;;;;;;6180111;23;20080;-73
2023/03/07 01:10:42;;;;;;;21.48;5.45;;;20.10;59.10;;;;;;6206085;23;20127;-75
2023/03/07 01:13:09;;;;;;;14.07;5.07;;;20.10;59.00;;;;;;6182348;23;20002;-73
2023/03/07 01:15:36;;;;;;;17.98;5.70;;;20.10;58.80;;;;;;6182992;23;20013;-73
2023/03/07 01:18:03;;;;;;;19.98;5.40;;;20.10;58.50;;;;;;6180327;23;20383;-72
2023/03/07 01:20:34;;;;;;;16.52;5.30;;;20.10;58.20;;;;;;6181260;23;20009;-73
2023/03/07 01:23:00;;;;;;;17.13;5.35;;;20.10;58.00;;;;;;6184975;23;20442;-72
2023/03/07 01:25:27;;;;;;;14.60;5.13;;;20.10;58.00;;;;;;6184383;23;20037;-72
2023/03/07 01:27:57;;;;;;;10.23;4.78;;;20.10;57.60;;;;;;6207172;23;20005;-72
2023/03/07 01:30:26;;;;;;;13.77;4.90;;;20.00;57.70;;;;;;6251813;22;20011;-75
2023/03/07 01:32:57;;;;;;;13.43;4.60;;;20.00;57.50;;;;;;6273981;22;20018;-75
2023/03/07 01:35:23;;;;;;;11.77;4.30;;;20.00;57.50;;;;;;6274006;22;20010;-75
2023/03/07 01:37:50;;;;;;;9.95;4.82;;;20.00;57.50;;;;;;6273144;22;20012;-75
2023/03/07 01:40:17;;;;;;;11.05;4.85;;;20.00;57.50;;;;;;6247763;22;20016;-75
2023/03/07 01:42:43;;;;;;;9.07;4.15;;;20.00;57.40;;;;;;6273579;22;20078;-75
2023/03/07 01:45:12;;;;;;;11.68;4.78;;;20.00;57.40;;;;;;6273685;22;20050;-73
2023/03/07 01:47:44;;;;;;;9.82;4.38;;;20.00;57.30;;;;;;6273213;22;20011;-73
2023/03/07 01:50:14;;;;;;;12.30;4.40;;;20.00;57.30;;;;;;6248075;22;20007;-73
2023/03/07 01:52:52;;;;;;;12.20;4.82;;;20.00;57.20;;;;;;6273466;22;20000;-73
2023/03/07 01:55:22;;;;;;;13.35;4.50;;;20.00;57.20;;;;;;6273595;22;20007;-74
2023/03/07 01:57:53;;;;;;;10.00;4.43;;;19.90;57.10;;;;;;6247605;22;20012;-73
2023/03/07 02:00:28;;;;;;;11.80;4.03;;;19.90;57.00;;;;;;6248144;22;20004;-73
2023/03/07 02:03:09;;;;;;;12.30;4.32;;;20.00;57.10;;;;;;6273584;22;20012;-75
2023/03/07 02:05:49;;;;;;;9.95;4.28;;;20.00;57.00;;;;;;6273526;22;20015;-75
2023/03/07 02:08:17;;;;;;;10.32;3.97;;;19.90;56.90;;;;;;6272927;22;20070;-75
2023/03/07 02:10:43;;;;;;;10.95;4.43;;;19.90;56.80;;;;;;6274787;22;20004;-76
2023/03/07 02:13:09;;;;;;;10.15;4.18;;;19.90;56.70;;;;;;6273419;22;20000;-75
2023/03/07 02:15:36;;;;;;;12.02;4.20;;;19.90;56.60;;;;;;6273568;22;20496;-75
2023/03/07 02:18:03;;;;;;;12.40;4.20;;;20.00;56.60;;;;;;6273020;22;20011;-75
2023/03/07 02:20:49;;;;;;;8.88;3.97;;;19.90;56.50;;;;;;6273311;22;20380;-75
2023/03/07 02:23:34;;;;;;;9.57;4.18;;;20.00;56.60;;;;;;6273371;22;20038;-75
2023/03/07 02:26:10;;;;;;;11.93;4.70;;;19.90;56.50;;;;;;6273335;22;20033;-76
2023/03/07 02:28:38;;;;;;;9.75;3.95;;;19.90;56.40;;;;;;6272840;22;20145;-75
2023/03/07 02:31:07;;;;;;;9.00;4.15;;;19.90;56.40;;;;;;6273224;22;20004;-76
2023/03/07 02:33:35;;;;;;;9.02;4.07;;;19.90;56.30;;;;;;6247729;22;20081;-75
2023/03/07 02:36:10;;;;;;;13.23;4.45;;;19.90;56.20;;;;;;6273322;22;20014;-75
2023/03/07 02:38:43;;;;;;;10.55;4.40;;;19.90;56.20;;;;;;6272666;22;20333;-75
2023/03/07 02:41:12;;;;;;;8.70;3.90;;;19.90;56.20;;;;;;6247566;22;20468;-76
2023/03/07 02:43:38;;;;;;;10.65;4.25;;;19.90;56.30;;;;;;6273304;22;20004;-75
2023/03/07 02:46:04;;;;;;;10.10;3.90;;;19.90;56.20;;;;;;6222593;22;20438;-75
2023/03/07 02:48:31;;;;;;;8.05;3.85;;;19.90;56.20;;;;;;6247116;22;20022;-75
2023/03/07 02:50:57;;;;;;;7.85;3.92;;;19.90;56.20;;;;;;6247620;22;20341;-75
2023/03/07 02:53:23;;;;;;;8.80;4.10;;;19.90;56.20;;;;;;6273075;22;20004;-75
2023/03/07 02:55:49;;;;;;;8.60;3.53;;;19.90;56.00;;;;;;6273052;22;20004;-75
2023/03/07 02:58:16;;;;;;;9.27;4.03;;;19.90;56.30;;;;;;6272614;22;20291;-75
2023/03/07 03:00:42;;;;;;;10.05;4.18;;;19.90;56.20;;;;;;6272943;22;20034;-75
2023/03/07 03:03:08;;;;;;;8.48;4.25;;;19.90;56.10;;;;;;6273181;22;20077;-75
2023/03/07 03:05:34;;;;;;;8.73;4.10;;;19.90;56.20;;;;;;6273033;22;20429;-76
2023/03/07 03:08:00;;;;;;;8.82;4.03;;;19.90;56.20;;;;;;6246978;22;20337;-75
2023/03/07 03:10:26;;;;;;;8.90;3.90;;;19.90;56.20;;;;;;6272915;22;20034;-75
2023/03/07 03:12:52;;;;;;;8.57;3.80;;;19.90;56.10;;;;;;6272948;22;20004;-75
2023/03/07 03:15:18;;;;;;;7.93;4.00;;;19.90;56.00;;;;;;6274529;22;20000;-75
2023/03/07 03:17:46;;;;;;;9.52;3.85;;;19.90;55.80;;;;;;6272633;22;20086;-75
2023/03/07 03:20:12;;;;;;;7.43;3.90;;;19.90;55.90;;;;;;6272773;22;20011;-76
2023/03/07 03:22:39;;;;;;;8.10;3.53;;;19.90;55.80;;;;;;6274460;22;20042;-75
2023/03/07 03:25:08;;;;;;;7.80;3.60;;;19.90;55.80;;;;;;6273228;22;20007;-75
2023/03/07 03:27:36;;;;;;;;;;;19.90;55.80;;;;;;6272886;22;20015;-75
2023/03/07 03:30:04;;;;;;;7.20;3.90;;;19.90;55.90;;;;;;6221858;22;19917;-76
2023/03/07 03:32:32;;;;;;;8.25;3.75;;;19.90;55.90;;;;;;6222580;22;20335;-75
2023/03/07 03:34:59;;;;;;;6.53;3.83;;;19.90;56.00;;;;;;6247187;22;20004;-76
2023/03/07 03:37:26;;;;;;;8.90;3.90;;;19.90;55.90;;;;;;6272653;22;20015;-75
2023/03/07 03:39:53;;;;;;;6.95;3.50;;;19.90;55.80;;;;;;6272762;22;20015;-76
2023/03/07 03:42:19;;;;;;;8.57;3.83;;;19.90;55.80;;;;;;6247369;22;20469;-75
2023/03/07 03:44:46;;;;;;;8.38;3.88;;;19.90;55.90;;;;;;6273109;22;20011;-76
2023/03/07 03:47:12;;;;;;;6.70;3.58;;;19.90;56.00;;;;;;6247157;22;20046;-76
2023/03/07 03:49:38;;;;;;;7.63;3.30;;;19.90;55.90;;;;;;6272398;22;20452;-76
2023/03/07 03:52:05;;;;;;;5.47;3.30;;;19.90;55.90;;;;;;6247168;22;20035;-76
2023/03/07 03:54:31;;;;;;;8.52;3.67;;;19.90;55.80;;;;;;6272760;22;20000;-76
2023/03/07 03:56:57;;;;;;;7.90;3.75;;;19.90;55.80;;;;;;6247570;22;20003;-76
2023/03/07 03:59:23;;;;;;;10.07;3.95;;;19.80;55.70;;;;;;6272680;22;20114;-75
2023/03/07 04:01:50;;;;;;;8.77;3.90;;;19.80;55.80;;;;;;6247471;22;20007;-75
2023/03/07 04:04:17;;;;;;;6.43;3.47;;;19.80;55.80;;;;;;6272786;22;20016;-75
2023/03/07 04:06:43;;;;;;;6.88;3.83;;;19.80;55.80;;;;;;6272783;22;20027;-75
2023/03/07 04:09:10;;;;;;;7.10;3.58;;;19.80;55.70;;;;;;6272117;22;20028;-76
2023/03/07 04:11:40;;;;;;;6.90;3.80;;;19.90;55.70;;;;;;6272725;22;20000;-76
2023/03/07 04:14:06;;;;;;;9.88;3.45;;;19.80;55.80;;;;;;6272596;22;20004;-75
2023/03/07 04:16:32;;;;;;;6.72;3.70;;;19.80;55.70;;;;;;6272574;22;20007;-76
2023/03/07 04:18:58;;;;;;;6.38;3.70;;;19.90;55.60;;;;;;6272144;22;20011;-76
2023/03/07 04:21:24;;;;;;;6.60;3.40;;;19.90;55.60;;;;;;6247070;22;20007;-75
2023/03/07 04:23:55;;;;;;;6.15;3.05;;;19.90;55.60;;;;;;6274451;22;19999;-75
2023/03/07 04:26:23;;;;;;;7.47;3.97;;;19.80;55.40;;;;;;6272708;22;20434;-76
2023/03/07 04:28:49;;;;;;;7.03;3.63;;;19.90;55.50;;;;;;6246684;22;20015;-76
2023/03/07 04:31:24;;;;;;;8.07;4.07;;;19.90;55.50;;;;;;6273427;22;20035;-75
2023/03/07 04:33:52;;;;;;;7.03;3.50;;;19.90;55.50;;;;;;6248643;22;20008;-76
2023/03/07 04:36:18;;;;;;;6.38;3.40;;;19.80;55.50;;;;;;6248860;22;20003;-76
2023/03/07 04:38:46;;;;;;;6.60;3.70;;;19.90;55.50;;;;;;6248164;22;20054;-76
2023/03/07 04:41:17;;;;;;;7.65;3.83;;;19.80;55.50;;;;;;6274429;22;20011;-76
2023/03/07 04:43:45;;;;;;;6.20;3.60;;;19.80;55.40;;;;;;6274405;22;20074;-76
2023/03/07 04:46:13;;;;;;;7.80;3.58;;;19.80;55.40;;;;;;6274854;22;20027;-76
2023/03/07 04:48:39;;;;;;;8.00;3.70;;;19.80;55.50;;;;;;6222922;22;20105;-76
2023/03/07 04:51:05;;;;;;;6.95;3.80;;;19.80;55.30;;;;;;6274825;22;20438;-76
2023/03/07 04:53:31;;;;;;;5.05;3.38;;;19.80;55.40;;;;;;6274307;22;20337;-76
2023/03/07 04:55:59;;;;;;;5.47;3.67;;;19.80;55.50;;;;;;6274427;22;20010;-76
2023/03/07 04:58:26;;;;;;;6.32;3.50;;;19.80;55.40;;;;;;6273792;22;20016;-76
2023/03/07 05:00:52;;;;;;;6.82;3.20;;;19.80;55.40;;;;;;6274230;22;20091;-76
2023/03/07 05:03:18;;;;;;;6.68;3.42;;;19.80;55.40;;;;;;6274200;22;20031;-75
2023/03/07 05:05:44;;;;;;;8.50;3.53;;;19.80;55.30;;;;;;6247419;22;20015;-76
2023/03/07 05:08:10;;;;;;;6.55;3.67;;;19.90;55.40;;;;;;6271200;22;20037;-75
2023/03/07 05:10:36;;;;;;;5.45;3.40;;;19.80;55.30;;;;;;6247939;22;20243;-75
2023/03/07 05:13:03;;;;;;;7.07;3.22;;;19.80;55.30;;;;;;6273462;22;20004;-75
2023/03/07 05:15:29;;;;;;;6.07;3.45;;;19.80;55.40;;;;;;6274134;22;20046;-75
2023/03/07 05:17:55;;;;;;;6.97;3.60;;;19.90;55.30;;;;;;6273248;22;20049;-75
2023/03/07 05:20:22;;;;;;;5.93;3.33;;;19.90;55.30;;;;;;6274071;22;20082;-76
2023/03/07 05:22:48;;;;;;;5.50;3.15;;;19.90;55.50;;;;;;6273959;22;20066;-75
2023/03/07 05:25:14;;;;;;;7.25;3.28;;;19.90;55.30;;;;;;6274131;22;20082;-75
2023/03/07 05:27:41;;;;;;;7.95;4.07;;;19.90;55.20;;;;;;6274401;22;20015;-76
2023/03/07 05:30:09;;;;;;;6.88;3.45;;;19.90;55.20;;;;;;6274375;22;20057;-76
2023/03/07 05:32:35;;;;;;;6.82;3.70;;;19.90;55.40;;;;;;6249284;22;20004;-76
2023/03/07 05:35:02;;;;;;;13.90;3.30;;;19.90;55.30;;;;;;6248245;22;20499;-75
2023/03/07 05:37:29;;;;;;;7.88;3.22;;;19.90;56.70;;;;;;6273870;22;20380;-76
2023/03/07 05:39:55;;;;;;;8.07;3.90;;;20.00;56.20;;;;;;6253067;22;20437;-76
2023/03/07 05:42:21;;;;;;;10.32;4.35;;;20.00;56.40;;;;;;6249453;22;20004;-75
2023/03/07 05:44:48;;;;;;;10.93;4.65;;;19.90;55.10;;;;;;6273511;22;20046;-75
2023/03/07 05:47:14;;;;;;;30.63;4.47;;;20.00;55.00;;;;;;6273671;22;20000;-75
2023/03/07 05:49:41;;;;;;;10.80;3.80;;;19.90;55.20;;;;;;6273716;22;20476;-75
2023/03/07 05:52:07;;;;;;;11.20;4.20;;;19.90;55.40;;;;;;6273826;22;20367;-75
2023/03/07 05:54:33;;;;;;;8.05;3.90;;;19.90;55.40;;;;;;6273672;22;20026;-75
2023/03/07 05:56:59;;;;;;;11.20;4.28;;;19.90;55.40;;;;;;6273916;22;20433;-75
2023/03/07 05:59:24;;;;;;;10.20;4.10;;;19.90;55.40;;;;;;6273569;22;20007;-75
2023/03/07 06:01:51;;;;;;;10.55;3.70;;;19.90;55.40;;;;;;6273856;22;20319;-75
2023/03/07 06:04:17;;;;;;;9.02;3.58;;;19.90;55.30;;;;;;6273698;22;20007;-75
2023/03/07 06:06:43;;;;;;;9.27;4.03;;;19.90;55.30;;;;;;6273381;22;20011;-76
2023/03/07 06:09:09;;;;;;;9.55;4.32;;;19.90;55.30;;;;;;6247207;22;20008;-75
2023/03/07 06:11:36;;;;;;;10.15;4.18;;;19.80;55.30;;;;;;6247899;22;20011;-74
2023/03/07 06:14:02;;;;;;;8.95;3.88;;;19.90;55.40;;;;;;6247966;22;20053;-75
2023/03/07 06:16:28;;;;;;;6.72;3.55;;;19.90;55.30;;;;;;6273510;22;20071;-75
2023/03/07 06:18:55;;;;;;;6.22;3.50;;;19.80;55.30;;;;;;6274485;22;20008;-75
2023/03/07 06:21:22;;;;;;;11.05;3.45;;;19.90;55.30;;;;;;6247775;22;20006;-75
2023/03/07 06:23:47;;;;;;;8.20;3.65;;;19.80;55.30;;;;;;6222747;22;20038;-76
2023/03/07 06:26:17;;;;;;;;;;;19.90;55.30;;;;;;6273959;22;20394;-76
2023/03/07 06:28:46;;;;;;;7.23;3.67;;;19.90;55.20;;;;;;6272458;22;20416;-76
2023/03/07 06:31:16;;;;;;;7.75;3.35;;;19.90;55.10;;;;;;6273396;22;20003;-75
2023/03/07 06:33:43;;;;;;;9.10;4.00;;;19.90;55.20;;;;;;6273190;22;20380;-76
2023/03/07 06:36:13;;;;;;;9.63;3.60;;;19.90;55.20;;;;;;6273274;22;20053;-75
2023/03/07 06:38:41;;;;;;;8.45;3.58;;;19.90;54.90;;;;;;6272781;22;20008;-75
2023/03/07 06:41:06;;;;;;;7.47;3.60;;;19.90;54.80;;;;;;6273226;22;20034;-75
2023/03/07 06:43:33;;;;;;;7.47;3.63;;;19.90;54.80;;;;;;6273112;22;20439;-75
2023/03/07 06:45:59;;;;;;;5.93;3.25;;;19.90;54.70;;;;;;6273130;22;20008;-75
2023/03/07 06:48:29;;;;;;;5.90;3.28;;;19.90;54.80;;;;;;6272859;22;20008;-75
2023/03/07 06:50:56;;;;;;;8.63;3.30;;;19.90;54.60;;;;;;6273174;22;20008;-75
2023/03/07 06:53:22;;;;;;;5.65;3.20;;;19.90;54.60;;;;;;6273007;22;20049;-75
2023/03/07 06:55:49;;;;;;;10.63;3.75;;;19.90;54.50;;;;;;6247628;22;20015;-75
2023/03/07 06:58:15;;;;;;;7.65;3.05;;;20.00;54.70;;;;;;6272725;22;20011;-75
2023/03/07 07:00:41;;;;;;;5.75;3.15;;;19.90;54.50;;;;;;6247330;22;20007;-75
2023/03/07 07:03:12;;;;;;;6.03;3.70;;;19.90;54.60;;;;;;6247333;22;20388;-75
2023/03/07 07:05:38;;;;;;;6.85;3.60;;;19.90;54.70;;;;;;6272950;22;20319;-75
2023/03/07 07:08:04;;;;;;;6.20;3.67;;;20.00;54.70;;;;;;6272515;22;20025;-75
2023/03/07 07:10:29;;;;;;;5.47;2.92;;;19.90;54.60;;;;;;6272967;22;20003;-75
2023/03/07 07:12:56;;;;;;;6.68;3.47;;;19.90;54.60;;;;;;6273165;22;20330;-75
2023/03/07 07:15:24;;;;;;;7.38;3.60;;;19.90;54.70;;;;;;6247844;22;20331;-75
2023/03/07 07:17:51;;;;;;;4.88;3.10;;;19.90;54.70;;;;;;6272675;22;20354;-75
2023/03/07 07:20:18;;;;;;;6.32;3.65;;;19.90;54.60;;;;;;6272800;22;20456;-76
2023/03/07 07:22:44;;;;;;;7.00;4.00;;;19.90;54.70;;;;;;6273185;22;20010;-76
2023/03/07 07:25:10;;;;;;;9.93;4.15;;;19.90;54.60;;;;;;6246801;22;20035;-75
2023/03/07 07:27:36;;;;;;;7.38;3.50;;;19.90;54.60;;;;;;6272675;22;20053;-76
2023/03/07 07:30:06;;;;;;;7.80;3.60;;;19.90;54.60;;;;;;6230754;22;20036;-71
2023/03/07 07:32:32;;;;;;;7.75;3.95;;;20.00;54.60;;;;;;6216770;23;20008;-71
2023/03/07 07:34:59;;;;;;;7.38;3.70;;;19.90;54.50;;;;;;6242135;23;20004;-71
2023/03/07 07:37:25;;;;;;;6.10;3.08;;;19.90;54.50;;;;;;6242113;23;20034;-71
2023/03/07 07:39:51;;;;;;;5.55;3.38;;;19.90;54.50;;;;;;6230589;22;20007;-71
2023/03/07 07:42:17;;;;;;;5.10;3.15;;;20.00;54.60;;;;;;6247642;22;20010;-71
2023/03/07 07:45:22;;;;;;;8.70;3.85;;;20.00;54.60;;;;;;6262211;22;20008;-71
2023/03/07 07:47:51;;;;;;;6.88;3.42;;;20.00;54.50;;;;;;6272295;22;20008;-71
2023/03/07 07:50:20;;;;;;;6.57;3.60;;;19.90;54.50;;;;;;6272766;22;20029;-71
2023/03/07 07:52:46;;;;;;;7.22;3.53;;;19.90;54.50;;;;;;6272958;22;19996;-71
2023/03/07 07:55:15;;;;;;;6.35;3.75;;;19.90;54.60;;;;;;6272879;22;20338;-71
2023/03/07 07:57:42;;;;;;;7.95;3.90;;;20.00;54.60;;;;;;6272449;22;20121;-71
2023/03/07 08:00:11;;;;;;;5.57;3.63;;;19.90;54.50;;;;;;6272754;22;20006;-71
2023/03/07 08:02:40;;;;;;;7.05;3.70;;;19.90;54.50;;;;;;6274535;22;20004;-71
2023/03/07 08:05:06;;;;;;;6.93;3.90;;;19.90;54.60;;;;;;6274272;22;20031;-71
2023/03/07 08:07:32;;;;;;;6.18;3.58;;;19.90;54.60;;;;;;6274444;22;20395;-71
2023/03/07 08:09:58;;;;;;;9.20;3.92;;;20.00;54.60;;;;;;6276435;22;20031;-71
2023/03/07 08:12:24;;;;;;;7.40;3.50;;;20.00;54.60;;;;;;6275570;22;20011;-71
2023/03/07 08:14:50;;;;;;;7.70;4.10;;;19.90;54.60;;;;;;6276129;22;20483;-71
2023/03/07 08:17:15;;;;;;;8.45;4.10;;;19.90;54.60;;;;;;6277307;22;20035;-71
2023/03/07 08:19:41;;;;;;;12.38;5.03;;;19.90;54.60;;;;;;6277389;22;20082;-71
2023/03/07 08:22:07;;;;;;;11.30;4.97;;;19.90;54.60;;;;;;6276029;22;20307;-71
2023/03/07 08:24:34;;;;;;;12.35;5.20;;;19.90;54.70;;;;;;6276267;22;20007;-72
2023/03/07 08:27:00;;;;;;;11.40;4.93;;;20.00;54.80;;;;;;6275943;22;20082;-71
2023/03/07 08:29:26;;;;;;;14.65;5.57;;;19.90;54.70;;;;;;6282274;22;20336;-72
2023/03/07 08:31:53;;;;;;;10.38;5.10;;;20.00;54.80;;;;;;6306997;22;20010;-71
2023/03/07 08:34:19;;;;;;;15.73;5.75;;;20.00;54.80;;;;;;6279645;22;20006;-71
2023/03/07 08:36:45;;;;;;;18.80;7.03;;;20.00;54.90;;;;;;6279762;22;20003;-71
2023/03/07 08:39:12;;;;;;;20.13;7.80;;;20.00;55.00;;;;;;6306412;22;20003;-71
2023/03/07 08:41:38;;;;;;;19.88;7.93;;;20.00;55.30;;;;;;6306884;22;20078;-71
2023/03/07 08:44:04;;;;;;;24.23;7.55;;;20.00;55.20;;;;;;6307079;22;20065;-71
2023/03/07 08:46:29;;;;;;;23.52;8.77;;;20.00;55.20;;;;;;6306644;22;20006;-72
2023/03/07 08:48:55;;;;;;;25.52;9.65;;;20.10;55.30;;;;;;6306354;22;20023;-71
2023/03/07 08:51:22;;;;;;;25.90;9.82;;;20.10;55.30;;;;;;6279477;22;19999;-71
2023/03/07 08:53:47;;;;;;;27.80;9.75;;;20.10;55.30;;;;;;6306797;22;20003;-71
2023/03/07 08:56:16;;;;;;;26.85;9.20;;;20.10;55.30;;;;;;6306800;22;20030;-71
2023/03/07 08:58:42;;;;;;;27.10;10.00;;;20.10;55.20;;;;;;6306365;22;20011;-71
2023/03/07 09:01:09;;;;;;;25.95;9.60;;;20.10;55.30;;;;;;6306522;22;20060;-71
2023/03/07 09:03:35;;;;;;;26.02;9.55;;;20.10;55.50;;;;;;6306704;22;20014;-71
2023/03/07 09:06:02;;;;;;;26.73;9.80;;;20.10;55.40;;;;;;6279430;22;20003;-72
2023/03/07 09:08:28;;;;;;;23.65;9.82;;;20.10;55.30;;;;;;6306142;22;20010;-71
2023/03/07 09:10:54;;;;;;;24.75;9.85;;;20.10;55.50;;;;;;6306480;22;19996;-72
2023/03/07 09:13:20;;;;;;;21.80;8.90;;;20.10;55.40;;;;;;6306551;22;20365;-71
2023/03/07 09:15:45;;;;;;;22.13;8.43;;;20.10;55.30;;;;;;6306866;22;20008;-71
2023/03/07 09:18:11;;;;;;;23.00;8.80;;;20.10;55.20;;;;;;6278480;22;20042;-71
2023/03/07 09:20:38;;;;;;;20.05;8.20;;;20.10;55.20;;;;;;6306377;22;20010;-71
2023/03/07 09:23:04;;;;;;;22.35;7.78;;;20.10;55.10;;;;;;6306346;22;20011;-72
2023/03/07 09:25:30;;;;;;;17.55;7.70;;;20.10;55.10;;;;;;6306952;22;20113;-71
2023/03/07 09:27:56;;;;;;;19.67;7.82;;;20.00;55.00;;;;;;6278540;22;20042;-71
2023/03/07 09:30:22;;;;;;;20.10;7.90;;;20.00;55.00;;;;;;6306100;22;19999;-71
2023/03/07 09:32:49;;;;;;;21.83;7.85;;;20.00;55.00;;;;;;6306245;22;20011;-72
2023/03/07 09:35:14;;;;;;;22.42;8.43;;;20.00;55.00;;;;;;6278882;22;20003;-72
2023/03/07 09:37:40;;;;;;;24.40;9.50;;;20.10;55.20;;;;;;6305833;22;20007;-71
2023/03/07 09:40:10;;;;;;;26.50;10.00;;;20.10;55.30;;;;;;6306052;22;20383;-72
2023/03/07 09:43:04;;;;;;;21.65;8.60;;;20.10;55.40;;;;;;6300943;22;20022;-73
2023/03/07 09:46:04;;;;;;;20.45;7.70;;;20.10;56.50;;;;;;6198154;22;20015;-73
2023/03/07 09:49:11;;;;;;;22.15;6.35;;;20.10;57.90;;;;;;6275223;22;20429;-75
2023/03/07 09:51:41;;;;;;;23.60;6.97;;;20.20;58.70;;;;;;6303283;22;20017;-75
2023/03/07 09:54:32;;;;;;;22.88;7.88;;;20.30;58.30;;;;;;6302790;22;20459;-75
2023/03/07 09:56:59;;;;;;;28.63;7.93;;;20.40;61.20;;;;;;6302975;22;20007;-82
2023/03/07 09:59:54;;;;;;;14.30;8.00;;;20.30;59.10;;;;;;6302629;22;20445;-81
2023/03/07 10:02:36;;;;;;;15.27;8.15;;;20.10;51.80;;;;;;6301978;22;20438;-81
2023/03/07 10:05:20;;;;;;;13.93;7.75;;;19.70;46.90;;;;;;6303007;22;20011;-75
2023/03/07 10:07:46;;;;;;;13.65;7.43;;;19.60;49.60;;;;;;6275284;22;20018;-75
2023/03/07 10:10:21;;;;;;;12.50;7.53;;;19.70;50.90;;;;;;6303043;22;20007;-75
2023/03/07 10:13:08;;;;;;;16.77;7.75;;;19.80;54.10;;;;;;6302835;22;20446;-75
2023/03/07 10:15:47;;;;;;;15.73;6.72;;;20.00;54.60;;;;;;6303138;22;20027;-75
2023/03/07 10:18:29;;;;;;;13.63;7.20;;;20.20;56.50;;;;;;6275206;22;20042;-75
2023/03/07 10:21:13;;;;;;;18.67;5.95;;;20.30;55.80;;;;;;6275250;22;20439;-75
2023/03/07 10:23:51;;;;;;;12.20;5.50;;;20.30;54.20;;;;;;6299547;22;20384;-75
2023/03/07 10:26:24;;;;;;;10.55;5.40;;;20.40;54.60;;;;;;6302521;22;20036;-75
2023/03/07 10:28:52;;;;;;;11.02;5.18;;;20.40;54.30;;;;;;6247548;22;20404;-75
2023/03/07 10:31:29;;;;;;;11.27;5.38;;;20.40;54.10;;;;;;6303099;22;20007;-75
2023/03/07 10:33:55;;;;;;;12.25;5.15;;;20.40;54.00;;;;;;6302705;22;20000;-75
2023/03/07 10:36:22;;;;;;;10.95;5.13;;;20.40;53.90;;;;;;6301945;22;20030;-75
2023/03/07 10:39:10;;;;;;;9.32;4.50;;;20.40;54.00;;;;;;6274010;22;20007;-75
2023/03/07 10:41:36;;;;;;;16.98;4.10;;;20.40;54.10;;;;;;6301347;22;20460;-75
2023/03/07 10:44:01;;;;;;;10.07;3.88;;;20.40;54.10;;;;;;6275021;22;20048;-75
2023/03/07 10:46:29;;;;;;;7.45;3.70;;;20.40;54.20;;;;;;6249305;22;20007;-76
2023/03/07 10:49:21;;;;;;;5.88;3.50;;;20.40;54.20;;;;;;6274259;22;20011;-77
2023/03/07 10:52:11;;;;;;;8.40;3.92;;;20.40;54.30;;;;;;6280457;22;20445;-76
2023/03/07 10:54:38;;;;;;;8.02;3.70;;;20.40;54.40;;;;;;6249319;22;20011;-76
2023/03/07 10:57:09;;;;;;;19.15;3.80;;;20.40;54.60;;;;;;6303064;22;20011;-77
2023/03/07 10:59:38;;;;;;;11.18;3.30;;;20.40;54.30;;;;;;6274697;22;20018;-76
2023/03/07 11:02:26;;;;;;;8.18;3.40;;;20.40;54.50;;;;;;6275102;22;20003;-76
2023/03/07 11:04:52;;;;;;;6.75;3.08;;;20.40;54.60;;;;;;6249601;22;20081;-76
2023/03/07 11:07:27;;;;;;;7.15;2.95;;;20.40;54.70;;;;;;6275026;22;20449;-76
2023/03/07 11:09:55;;;;;;;7.63;3.30;;;20.40;54.70;;;;;;6302354;22;20021;-76
2023/03/07 11:12:22;;;;;;;8.15;2.92;;;20.30;54.80;;;;;;6275102;22;20007;-76
2023/03/07 11:14:53;;;;;;;9.93;3.40;;;20.30;54.50;;;;;;6302582;22;20003;-76
2023/03/07 11:17:26;;;;;;;7.78;3.20;;;20.20;54.90;;;;;;6302616;22;20019;-77
2023/03/07 11:19:54;;;;;;;17.05;4.03;;;20.20;54.20;;;;;;6249633;22;20015;-76
2023/03/07 11:22:24;;;;;;;7.65;3.03;;;20.20;54.10;;;;;;6274021;22;20105;-77
2023/03/07 11:25:14;;;;;;;5.88;2.90;;;20.20;53.30;;;;;;6249986;22;20080;-76
2023/03/07 11:27:55;;;;;;;6.68;3.03;;;20.20;53.80;;;;;;6302141;22;20000;-76
2023/03/07 11:30:37;;;;;;;6.50;3.03;;;20.20;53.70;;;;;;6249320;22;20062;-75
2023/03/07 11:33:34;;;;;;;6.97;2.90;;;20.20;53.60;;;;;;6302423;22;20003;-76
2023/03/07 11:36:06;;;;;;;8.07;2.83;;;20.20;53.80;;;;;;6249587;22;20481;-76
2023/03/07 11:38:41;;;;;;;12.45;2.90;;;20.20;53.90;;;;;;6302334;22;20013;-76
2023/03/07 11:41:10;;;;;;;5.40;2.42;;;20.20;54.00;;;;;;6304547;22;20040;-77
2023/03/07 11:43:42;;;;;;;12.10;2.90;;;20.20;54.30;;;;;;6304453;22;20400;-77
2023/03/07 11:46:11;;;;;;;10.43;3.53;;;20.20;54.80;;;;;;6277426;22;20011;-75
2023/03/07 11:48:40;;;;;;;10.17;3.33;;;20.20;55.30;;;;;;6304271;22;20007;-78
2023/03/07 11:51:31;;;;;;;8.23;3.35;;;20.20;54.90;;;;;;6276964;22;20242;-75
2023/03/07 11:54:19;;;;;;;9.23;2.85;;;20.20;55.60;;;;;;6304411;22;20013;-75
2023/03/07 11:57:06;;;;;;;7.50;2.78;;;20.20;54.70;;;;;;6304643;22;20379;-75
2023/03/07 11:59:35;;;;;;;15.50;3.35;;;20.20;54.70;;;;;;6278591;22;20078;-75
2023/03/07 12:02:06;;;;;;;13.95;3.17;;;20.20;54.90;;;;;;6304548;22;20007;-74
2023/03/07 12:05:15;;;;;;;10.30;3.22;;;20.30;55.40;;;;;;6304710;22;20010;-76
2023/03/07 12:07:56;;;;;;;6.65;3.03;;;20.30;55.20;;;;;;6303731;22;20061;-75
2023/03/07 12:10:43;;;;;;;11.18;2.72;;;20.30;55.50;;;;;;6251554;22;20066;-76
2023/03/07 12:13:25;;;;;;;6.85;2.83;;;20.30;55.70;;;;;;6306179;22;20056;-77
2023/03/07 12:16:01;;;;;;;12.15;3.42;;;20.20;55.30;;;;;;6277493;22;20441;-79
2023/03/07 12:19:03;;;;;;;13.13;2.88;;;20.30;56.50;;;;;;6250760;22;20449;-78
2023/03/07 12:21:50;;;;;;;11.77;3.00;;;20.30;56.40;;;;;;6205359;22;20064;-79
2023/03/07 12:24:27;;;;;;;9.75;3.25;;;20.30;57.30;;;;;;6250995;22;20043;-77
2023/03/07 12:27:00;;;;;;;13.25;3.58;;;20.30;58.60;;;;;;6276777;22;20015;-77
2023/03/07 12:29:45;;;;;;;13.30;3.15;;;20.30;59.50;;;;;;6303945;22;20003;-77
2023/03/07 12:32:24;;;;;;;11.48;3.40;;;20.30;59.70;;;;;;6305604;22;20007;-78
2023/03/07 12:35:13;;;;;;;12.82;2.95;;;20.30;59.90;;;;;;6251345;22;20077;-77
2023/03/07 12:37:45;;;;;;;8.55;2.97;;;20.30;60.60;;;;;;6301480;22;20007;-77
2023/03/07 12:40:22;;;;;;;12.32;3.53;;;20.30;61.10;;;;;;6275142;22;20039;-77
2023/03/07 12:43:00;;;;;;;10.88;2.80;;;20.30;61.50;;;;;;6276408;22;20038;-77
2023/03/07 12:45:30;;;;;;;10.20;2.60;;;20.30;61.70;;;;;;6303915;22;20007;-77
2023/03/07 12:48:07;;;;;;;12.63;2.90;;;20.30;61.60;;;;;;6274830;22;20379;-76
2023/03/07 12:51:02;;;;;;;10.63;3.05;;;20.40;62.30;;;;;;6303233;22;20078;-76
2023/03/07 12:53:45;;;;;;;8.45;2.72;;;20.30;61.80;;;;;;6303586;22;20007;-76
2023/03/07 12:56:19;;;;;;;11.00;3.10;;;20.40;61.90;;;;;;6275958;22;20007;-76
2023/03/07 12:58:54;;;;;;;15.52;3.22;;;20.40;61.80;;;;;;6303509;22;20007;-76